sensor_id;sensor_type;location;lat;lon;timestamp;pressure;altitude;pressure_sealevel;temperature;humidity
47280;BME280;34064;44.942;0.008;2023-11-22T00:02:03;99591.22;;;14.61;65.22
47280;BME280;34064;44.942;0.008;2023-11-22T00:04:29;99588.31;;;14.64;65.04
47280;BME280;34064;44.942;0.008;2023-11-22T00:06:55;99595.00;;;14.59;65.13
47280;BME280;34064;44.942;0.008;2023-11-22T00:09:22;99593.91;;;14.61;65.03
47280;BME280;34064;44.942;0.008;2023-11-22T00:11:49;99601.69;;;14.64;65.16
47280;BME280;34064;44.942;0.008;2023-11-22T00:14:16;99602.91;;;14.60;65.16
47280;BME280;34064;44.942;0.008;2023-11-22T00:16:42;99599.25;;;14.61;65.14
47280;BME280;34064;44.942;0.008;2023-11-22T00:19:08;99605.47;;;14.62;65.17
47280;BME280;34064;44.942;0.008;2023-11-22T00:21:35;99603.38;;;14.65;65.04
47280;BME280;34064;44.942;0.008;2023-11-22T00:24:01;99599.25;;;14.73;64.56
47280;BME280;34064;44.942;0.008;2023-11-22T00:26:28;99601.22;;;14.71;64.86
47280;BME280;34064;44.942;0.008;2023-11-22T00:28:54;99601.47;;;14.68;64.65
47280;BME280;34064;44.942;0.008;2023-11-22T00:31:20;99601.47;;;14.68;64.74
47280;BME280;34064;44.942;0.008;2023-11-22T00:33:47;99610.53;;;14.65;64.73
47280;BME280;34064;44.942;0.008;2023-11-22T00:36:13;99612.38;;;14.64;64.93
47280;BME280;34064;44.942;0.008;2023-11-22T00:38:39;99617.00;;;14.62;64.81
47280;BME280;34064;44.942;0.008;2023-11-22T00:41:06;99613.34;;;14.63;64.97
47280;BME280;34064;44.942;0.008;2023-11-22T00:43:33;99616.75;;;14.65;64.97
47280;BME280;34064;44.942;0.008;2023-11-22T00:45:59;99615.81;;;14.66;64.92
47280;BME280;34064;44.942;0.008;2023-11-22T00:48:27;99610.69;;;14.63;64.93
47280;BME280;34064;44.942;0.008;2023-11-22T00:50:53;99614.09;;;14.65;64.60
47280;BME280;34064;44.942;0.008;2023-11-22T00:53:20;99610.91;;;14.60;64.83
47280;BME280;34064;44.942;0.008;2023-11-22T00:55:46;99605.84;;;14.57;64.59
47280;BME280;34064;44.942;0.008;2023-11-22T00:58:13;99593.91;;;14.61;64.14
47280;BME280;34064;44.942;0.008;2023-11-22T01:00:39;99594.28;;;14.57;64.42
47280;BME280;34064;44.942;0.008;2023-11-22T01:03:05;99590.63;;;14.58;64.23
47280;BME280;34064;44.942;0.008;2023-11-22T01:05:31;99584.91;;;14.51;63.99
47280;BME280;34064;44.942;0.008;2023-11-22T01:07:58;99597.81;;;14.46;64.02
47280;BME280;34064;44.942;0.008;2023-11-22T01:10:24;99594.91;;;14.38;64.29
47280;BME280;34064;44.942;0.008;2023-11-22T01:12:50;99596.84;;;14.35;64.16
47280;BME280;34064;44.942;0.008;2023-11-22T01:15:17;99603.41;;;14.31;64.29
47280;BME280;34064;44.942;0.008;2023-11-22T01:17:43;99600.72;;;14.31;63.91
47280;BME280;34064;44.942;0.008;2023-11-22T01:20:10;99612.41;;;14.19;64.43
47280;BME280;34064;44.942;0.008;2023-11-22T01:22:37;99610.47;;;14.21;64.02
47280;BME280;34064;44.942;0.008;2023-11-22T01:25:04;99611.44;;;14.20;63.85
47280;BME280;34064;44.942;0.008;2023-11-22T01:27:31;99618.34;;;14.11;64.26
47280;BME280;34064;44.942;0.008;2023-11-22T01:29:57;99627.34;;;14.10;64.29
47280;BME280;34064;44.942;0.008;2023-11-22T01:32:23;99625.91;;;14.06;64.23
47280;BME280;34064;44.942;0.008;2023-11-22T01:34:50;99627.59;;;14.07;64.06
47280;BME280;34064;44.942;0.008;2023-11-22T01:37:16;99626.97;;;14.03;64.23
47280;BME280;34064;44.942;0.008;2023-11-22T01:39:42;99633.31;;;14.02;64.04
47280;BME280;34064;44.942;0.008;2023-11-22T01:42:09;99638.25;;;13.96;64.22
47280;BME280;34064;44.942;0.008;2023-11-22T01:44:35;99638.50;;;13.93;64.41
47280;BME280;34064;44.942;0.008;2023-11-22T01:47:02;99652.41;;;13.85;64.53
47280;BME280;34064;44.942;0.008;2023-11-22T01:49:30;99655.00;;;13.86;64.51
47280;BME280;34064;44.942;0.008;2023-11-22T01:51:57;99649.66;;;13.86;64.47
47280;BME280;34064;44.942;0.008;2023-11-22T01:54:24;99644.19;;;13.88;64.33
47280;BME280;34064;44.942;0.008;2023-11-22T01:56:51;99655.84;;;13.87;64.29
47280;BME280;34064;44.942;0.008;2023-11-22T01:59:19;99654.63;;;13.80;64.63
47280;BME280;34064;44.942;0.008;2023-11-22T02:01:45;99649.88;;;13.83;64.60
47280;BME280;34064;44.942;0.008;2023-11-22T02:04:15;99657.28;;;13.80;64.67
47280;BME280;34064;44.942;0.008;2023-11-22T02:06:41;99657.28;;;13.80;64.67
47280;BME280;34064;44.942;0.008;2023-11-22T02:09:07;99663.59;;;13.79;64.70
47280;BME280;34064;44.942;0.008;2023-11-22T02:11:39;99664.19;;;13.82;64.73
47280;BME280;34064;44.942;0.008;2023-11-22T02:14:07;99667.00;;;13.81;64.96
47280;BME280;34064;44.942;0.008;2023-11-22T02:16:33;99664.31;;;13.81;65.10
47280;BME280;34064;44.942;0.008;2023-11-22T02:19:00;99660.69;;;13.82;64.98
47280;BME280;34064;44.942;0.008;2023-11-22T02:21:26;99657.53;;;13.88;64.89
47280;BME280;34064;44.942;0.008;2023-11-22T02:23:52;99648.34;;;13.92;64.74
47280;BME280;34064;44.942;0.008;2023-11-22T02:26:19;99653.41;;;13.95;64.70
47280;BME280;34064;44.942;0.008;2023-11-22T02:28:45;99650.66;;;13.97;64.71
47280;BME280;34064;44.942;0.008;2023-11-22T02:31:11;99645.31;;;13.97;64.73
47280;BME280;34064;44.942;0.008;2023-11-22T02:33:38;99652.81;;;13.92;64.93
47280;BME280;34064;44.942;0.008;2023-11-22T02:36:06;99651.50;;;13.97;64.70
47280;BME280;34064;44.942;0.008;2023-11-22T02:38:33;99655.03;;;13.98;64.77
47280;BME280;34064;44.942;0.008;2023-11-22T02:41:01;99647.63;;;14.01;64.49
47280;BME280;34064;44.942;0.008;2023-11-22T02:43:28;99647.63;;;14.01;64.52
47280;BME280;34064;44.942;0.008;2023-11-22T02:45:54;99647.63;;;14.01;64.51
47280;BME280;34064;44.942;0.008;2023-11-22T02:48:21;99643.97;;;14.02;64.54
47280;BME280;34064;44.942;0.008;2023-11-22T02:50:47;99645.66;;;14.03;64.66
47280;BME280;34064;44.942;0.008;2023-11-22T02:53:15;99649.06;;;14.06;64.49
47280;BME280;34064;44.942;0.008;2023-11-22T02:55:41;99645.78;;;14.02;64.63
47280;BME280;34064;44.942;0.008;2023-11-22T02:58:07;99641.19;;;14.04;64.68
47280;BME280;34064;44.942;0.008;2023-11-22T03:00:34;99645.66;;;14.03;64.54
47280;BME280;34064;44.942;0.008;2023-11-22T03:03:00;99635.09;;;14.02;64.77
47280;BME280;34064;44.942;0.008;2023-11-22T03:05:27;99640.09;;;14.07;64.68
47280;BME280;34064;44.942;0.008;2023-11-22T03:07:53;99640.31;;;14.03;64.82
47280;BME280;34064;44.942;0.008;2023-11-22T03:10:20;99641.19;;;14.04;64.73
47280;BME280;34064;44.942;0.008;2023-11-22T03:12:46;99644.94;;;14.01;64.67
47280;BME280;34064;44.942;0.008;2023-11-22T03:15:14;99646.00;;;13.99;64.80
47280;BME280;34064;44.942;0.008;2023-11-22T03:17:40;99641.66;;;13.98;64.90
47280;BME280;34064;44.942;0.008;2023-11-22T03:20:08;99638.88;;;13.99;65.04
47280;BME280;34064;44.942;0.008;2023-11-22T03:22:37;99636.31;;;13.98;64.88
47280;BME280;34064;44.942;0.008;2023-11-22T03:25:04;99639.09;;;13.96;64.72
47280;BME280;34064;44.942;0.008;2023-11-22T03:27:31;99642.72;;;13.95;64.93
47280;BME280;34064;44.942;0.008;2023-11-22T03:29:57;99641.03;;;13.94;65.01
47280;BME280;34064;44.942;0.008;2023-11-22T03:32:24;99642.72;;;13.95;64.89
47280;BME280;34064;44.942;0.008;2023-11-22T03:34:50;99643.00;;;13.92;65.11
47280;BME280;34064;44.942;0.008;2023-11-22T03:37:17;99652.19;;;13.88;65.17
47280;BME280;34064;44.942;0.008;2023-11-22T03:39:45;99646.97;;;13.86;65.25
47280;BME280;34064;44.942;0.008;2023-11-22T03:42:17;99639.81;;;13.87;65.08
47280;BME280;34064;44.942;0.008;2023-11-22T03:44:43;99643.69;;;13.83;65.11
47280;BME280;34064;44.942;0.008;2023-11-22T03:47:11;99644.66;;;13.82;65.28
47280;BME280;34064;44.942;0.008;2023-11-22T03:49:39;99637.63;;;13.81;65.31
47280;BME280;34064;44.942;0.008;2023-11-22T03:52:05;99645.63;;;13.81;65.35
47280;BME280;34064;44.942;0.008;2023-11-22T03:54:32;99644.06;;;13.78;65.29
47280;BME280;34064;44.942;0.008;2023-11-22T03:56:58;99636.88;;;13.79;65.17
47280;BME280;34064;44.942;0.008;2023-11-22T03:59:25;99645.84;;;13.78;65.02
47280;BME280;34064;44.942;0.008;2023-11-22T04:01:51;99649.97;;;13.70;65.08
47280;BME280;34064;44.942;0.008;2023-11-22T04:04:17;99654.69;;;13.67;65.36
47280;BME280;34064;44.942;0.008;2023-11-22T04:06:45;99659.16;;;13.66;65.30
47280;BME280;34064;44.942;0.008;2023-11-22T04:09:11;99662.31;;;13.60;65.37
47280;BME280;34064;44.942;0.008;2023-11-22T04:11:42;99664.25;;;13.58;65.53
47280;BME280;34064;44.942;0.008;2023-11-22T04:14:09;99672.03;;;13.61;65.46
47280;BME280;34064;44.942;0.008;2023-11-22T04:16:35;99659.66;;;13.60;65.53
47280;BME280;34064;44.942;0.008;2023-11-22T04:19:02;99675.66;;;13.60;65.45
47280;BME280;34064;44.942;0.008;2023-11-22T04:21:28;99672.16;;;13.60;65.63
47280;BME280;34064;44.942;0.008;2023-11-22T04:23:55;99673.97;;;13.59;65.59
47280;BME280;34064;44.942;0.008;2023-11-22T04:26:21;99673.34;;;13.55;65.52
47280;BME280;34064;44.942;0.008;2023-11-22T04:28:48;99688.28;;;13.58;65.50
47280;BME280;34064;44.942;0.008;2023-11-22T04:31:14;99690.19;;;13.56;65.71
47280;BME280;34064;44.942;0.008;2023-11-22T04:33:41;99684.84;;;13.56;65.52
47280;BME280;34064;44.942;0.008;2023-11-22T04:36:07;99691.91;;;13.57;65.35
47280;BME280;34064;44.942;0.008;2023-11-22T04:38:34;99694.91;;;13.52;65.51
47280;BME280;34064;44.942;0.008;2023-11-22T04:41:00;99704.97;;;13.49;65.42
47280;BME280;34064;44.942;0.008;2023-11-22T04:43:27;99704.97;;;13.49;65.66
47280;BME280;34064;44.942;0.008;2023-11-22T04:45:53;99706.06;;;13.46;65.63
47280;BME280;34064;44.942;0.008;2023-11-22T04:48:19;99712.34;;;13.45;65.74
47280;BME280;34064;44.942;0.008;2023-11-22T04:50:45;99723.16;;;13.44;65.61
47280;BME280;34064;44.942;0.008;2023-11-22T04:53:12;99712.22;;;13.47;65.65
47280;BME280;34064;44.942;0.008;2023-11-22T04:55:38;99719.53;;;13.45;65.59
47280;BME280;34064;44.942;0.008;2023-11-22T04:58:05;99728.25;;;13.47;65.76
47280;BME280;34064;44.942;0.008;2023-11-22T05:00:31;99729.97;;;13.48;65.68
47280;BME280;34064;44.942;0.008;2023-11-22T05:02:57;99728.50;;;13.44;65.76
47280;BME280;34064;44.942;0.008;2023-11-22T05:05:24;99735.28;;;13.48;65.72
47280;BME280;34064;44.942;0.008;2023-11-22T05:07:50;99731.66;;;13.49;65.86
47280;BME280;34064;44.942;0.008;2023-11-22T05:10:16;99732.28;;;13.52;65.64
47280;BME280;34064;44.942;0.008;2023-11-22T05:12:43;99728.03;;;13.50;65.72
47280;BME280;34064;44.942;0.008;2023-11-22T05:15:11;99727.69;;;13.54;65.64
47280;BME280;34064;44.942;0.008;2023-11-22T05:17:37;99728.56;;;13.55;65.68
47280;BME280;34064;44.942;0.008;2023-11-22T05:20:05;99727.56;;;13.56;65.58
47280;BME280;34064;44.942;0.008;2023-11-22T05:22:35;99722.75;;;13.61;65.48
47280;BME280;34064;44.942;0.008;2023-11-22T05:25:01;99722.88;;;13.60;65.53
47280;BME280;34064;44.942;0.008;2023-11-22T05:27:28;99731.84;;;13.59;65.54
47280;BME280;34064;44.942;0.008;2023-11-22T05:29:55;99724.69;;;13.59;65.55
47280;BME280;34064;44.942;0.008;2023-11-22T05:32:21;99729.28;;;13.57;65.60
47280;BME280;34064;44.942;0.008;2023-11-22T05:34:47;99731.09;;;13.56;65.69
47280;BME280;34064;44.942;0.008;2023-11-22T05:37:13;99741.66;;;13.58;65.69
47280;BME280;34064;44.942;0.008;2023-11-22T05:39:40;99729.06;;;13.60;65.69
47280;BME280;34064;44.942;0.008;2023-11-22T05:42:06;99734.53;;;13.59;65.76
47280;BME280;34064;44.942;0.008;2023-11-22T05:44:33;99746.78;;;13.61;65.52
47280;BME280;34064;44.942;0.008;2023-11-22T05:46:59;99754.78;;;13.61;65.63
47280;BME280;34064;44.942;0.008;2023-11-22T05:49:25;99752.13;;;13.61;65.70
47280;BME280;34064;44.942;0.008;2023-11-22T05:51:52;99752.97;;;13.62;65.59
47280;BME280;34064;44.942;0.008;2023-11-22T05:54:18;99750.19;;;13.63;65.87
47280;BME280;34064;44.942;0.008;2023-11-22T05:56:44;99759.25;;;13.61;65.73
47280;BME280;34064;44.942;0.008;2023-11-22T05:59:11;99762.59;;;13.64;65.62
47280;BME280;34064;44.942;0.008;2023-11-22T06:01:37;99768.88;;;13.63;65.85
47280;BME280;34064;44.942;0.008;2023-11-22T06:04:03;99764.50;;;13.62;65.91
47280;BME280;34064;44.942;0.008;2023-11-22T06:06:30;99769.59;;;13.65;65.92
47280;BME280;34064;44.942;0.008;2023-11-22T06:08:56;99767.91;;;13.64;65.92
47280;BME280;34064;44.942;0.008;2023-11-22T06:11:23;99767.91;;;13.64;65.93
47280;BME280;34064;44.942;0.008;2023-11-22T06:13:51;99773.00;;;13.67;65.71
47280;BME280;34064;44.942;0.008;2023-11-22T06:16:17;99770.47;;;13.66;65.92
47280;BME280;34064;44.942;0.008;2023-11-22T06:18:44;99770.47;;;13.66;65.88
47280;BME280;34064;44.942;0.008;2023-11-22T06:21:10;99774.94;;;13.65;65.82
47280;BME280;34064;44.942;0.008;2023-11-22T06:23:37;99773.97;;;13.66;65.81
47280;BME280;34064;44.942;0.008;2023-11-22T06:26:03;99777.59;;;13.65;65.86
47280;BME280;34064;44.942;0.008;2023-11-22T06:28:29;99778.81;;;13.61;66.12
47280;BME280;34064;44.942;0.008;2023-11-22T06:30:56;99777.72;;;13.64;65.94
47280;BME280;34064;44.942;0.008;2023-11-22T06:33:22;99780.28;;;13.65;65.72
47280;BME280;34064;44.942;0.008;2023-11-22T06:35:48;99789.38;;;13.63;65.96
47280;BME280;34064;44.942;0.008;2023-11-22T06:38:15;99790.47;;;13.60;65.99
47280;BME280;34064;44.942;0.008;2023-11-22T06:40:42;99784.16;;;13.61;65.98
47280;BME280;34064;44.942;0.008;2023-11-22T06:43:09;99787.56;;;13.63;65.92
47280;BME280;34064;44.942;0.008;2023-11-22T06:45:36;99794.84;;;13.61;66.02
47280;BME280;34064;44.942;0.008;2023-11-22T06:48:02;99798.34;;;13.62;65.97
47280;BME280;34064;44.942;0.008;2023-11-22T06:50:28;99801.63;;;13.65;65.93
47280;BME280;34064;44.942;0.008;2023-11-22T06:52:55;99806.34;;;13.62;65.88
47280;BME280;34064;44.942;0.008;2023-11-22T06:55:21;99809.16;;;13.60;66.03
47280;BME280;34064;44.942;0.008;2023-11-22T06:57:48;99811.06;;;13.58;66.07
47280;BME280;34064;44.942;0.008;2023-11-22T07:00:14;99814.59;;;13.59;66.06
47280;BME280;34064;44.942;0.008;2023-11-22T07:02:42;99817.91;;;13.62;65.94
47280;BME280;34064;44.942;0.008;2023-11-22T07:05:09;99817.38;;;13.57;66.21
47280;BME280;34064;44.942;0.008;2023-11-22T07:07:36;99811.06;;;13.58;66.20
47280;BME280;34064;44.942;0.008;2023-11-22T07:10:02;99808.31;;;13.60;66.10
47280;BME280;34064;44.942;0.008;2023-11-22T07:12:32;99809.16;;;13.60;66.16
47280;BME280;34064;44.942;0.008;2023-11-22T07:15:00;99809.97;;;13.61;66.28
47280;BME280;34064;44.942;0.008;2023-11-22T07:17:27;99817.91;;;13.62;66.33
47280;BME280;34064;44.942;0.008;2023-11-22T07:19:55;99819.38;;;13.66;66.10
47280;BME280;34064;44.942;0.008;2023-11-22T07:22:21;99808.69;;;13.66;65.97
47280;BME280;34064;44.942;0.008;2023-11-22T07:24:50;99816.59;;;13.68;66.13
47280;BME280;34064;44.942;0.008;2023-11-22T07:27:21;99819.16;;;13.69;66.22
47280;BME280;34064;44.942;0.008;2023-11-22T07:29:48;99830.44;;;13.73;66.04
47280;BME280;34064;44.942;0.008;2023-11-22T07:32:15;99830.56;;;13.71;66.21
47280;BME280;34064;44.942;0.008;2023-11-22T07:34:42;99835.91;;;13.71;66.25
47280;BME280;34064;44.942;0.008;2023-11-22T07:37:08;99835.56;;;13.76;66.10
47280;BME280;34064;44.942;0.008;2023-11-22T07:39:35;99838.88;;;13.80;66.02
47280;BME280;34064;44.942;0.008;2023-11-22T07:42:05;99846.59;;;13.71;66.32
47280;BME280;34064;44.942;0.008;2023-11-22T07:44:35;99847.44;;;13.72;66.29
47280;BME280;34064;44.942;0.008;2023-11-22T07:47:04;99843.69;;;13.75;66.27
47280;BME280;34064;44.942;0.008;2023-11-22T07:49:34;99849.88;;;13.75;66.33
47280;BME280;34064;44.942;0.008;2023-11-22T07:52:05;99854.78;;;13.81;66.09
47280;BME280;34064;44.942;0.008;2023-11-22T07:54:32;99844.44;;;13.77;66.26
47280;BME280;34064;44.942;0.008;2023-11-22T07:56:58;99853.19;;;13.79;66.50
47280;BME280;34064;44.942;0.008;2023-11-22T07:59:24;99858.81;;;13.87;66.10
47280;BME280;34064;44.942;0.008;2023-11-22T08:01:51;99858.06;;;13.85;66.33
47280;BME280;34064;44.942;0.008;2023-11-22T08:04:19;99863.31;;;13.86;66.45
47280;BME280;34064;44.942;0.008;2023-11-22T08:06:46;99863.06;;;13.89;66.47
47280;BME280;34064;44.942;0.008;2023-11-22T08:09:14;99867.97;;;13.96;66.25
47280;BME280;34064;44.942;0.008;2023-11-22T08:11:42;99864.34;;;13.97;66.47
47280;BME280;34064;44.942;0.008;2023-11-22T08:14:09;99859.50;;;14.02;66.47
47280;BME280;34064;44.942;0.008;2023-11-22T08:16:35;99861.09;;;14.04;66.33
47280;BME280;34064;44.942;0.008;2023-11-22T08:19:04;99861.81;;;14.07;66.34
47280;BME280;34064;44.942;0.008;2023-11-22T08:21:31;99852.72;;;14.09;66.16
47280;BME280;34064;44.942;0.008;2023-11-22T08:23:58;99860.53;;;14.12;65.90
47280;BME280;34064;44.942;0.008;2023-11-22T08:26:25;99855.06;;;14.14;65.90
47280;BME280;34064;44.942;0.008;2023-11-22T08:28:53;99855.06;;;14.14;66.07
47280;BME280;34064;44.942;0.008;2023-11-22T08:31:20;99854.44;;;14.10;66.13
47280;BME280;34064;44.942;0.008;2023-11-22T08:33:46;99851.41;;;14.15;66.03
47280;BME280;34064;44.942;0.008;2023-11-22T08:36:12;99858.00;;;14.22;65.60
47280;BME280;34064;44.942;0.008;2023-11-22T08:38:39;99866.75;;;14.24;65.75
47280;BME280;34064;44.942;0.008;2023-11-22T08:41:09;99868.25;;;14.28;65.77
47280;BME280;34064;44.942;0.008;2023-11-22T08:43:40;99869.22;;;14.27;65.63
47280;BME280;34064;44.942;0.008;2023-11-22T08:46:07;99865.31;;;14.31;65.59
47280;BME280;34064;44.942;0.008;2023-11-22T08:48:34;99873.13;;;14.34;65.45
47280;BME280;34064;44.942;0.008;2023-11-22T08:51:01;99880.66;;;14.29;65.63
47280;BME280;34064;44.942;0.008;2023-11-22T08:53:29;99871.19;;;14.37;65.47
47280;BME280;34064;44.942;0.008;2023-11-22T08:55:56;99871.31;;;14.35;65.57
47280;BME280;34064;44.942;0.008;2023-11-22T08:58:23;99874.81;;;14.35;65.44
47280;BME280;34064;44.942;0.008;2023-11-22T09:00:50;99868.56;;;14.48;65.04
47280;BME280;34064;44.942;0.008;2023-11-22T09:03:16;99868.16;;;14.41;65.18
47280;BME280;34064;44.942;0.008;2023-11-22T09:05:43;99867.81;;;14.46;65.10
47280;BME280;34064;44.942;0.008;2023-11-22T09:08:10;99860.63;;;14.46;64.78
47280;BME280;34064;44.942;0.008;2023-11-22T09:10:39;99876.81;;;14.45;65.10
47280;BME280;34064;44.942;0.008;2023-11-22T09:13:10;99885.56;;;14.47;65.17
47280;BME280;34064;44.942;0.008;2023-11-22T09:15:37;99877.94;;;14.54;64.99
47280;BME280;34064;44.942;0.008;2023-11-22T09:18:05;99885.34;;;14.61;64.78
47280;BME280;34064;44.942;0.008;2023-11-22T09:20:32;99885.13;;;14.64;64.86
47280;BME280;34064;44.942;0.008;2023-11-22T09:22:58;99888.63;;;14.78;64.08
47280;BME280;34064;44.942;0.008;2023-11-22T09:25:26;99882.03;;;14.82;64.35
47280;BME280;34064;44.942;0.008;2023-11-22T09:27:57;99887.28;;;14.95;64.32
47280;BME280;34064;44.942;0.008;2023-11-22T09:30:30;99872.09;;;15.07;63.78
47280;BME280;34064;44.942;0.008;2023-11-22T09:33:13;99885.47;;;15.07;63.54
47280;BME280;34064;44.942;0.008;2023-11-22T09:35:45;99870.53;;;15.16;63.31
47280;BME280;34064;44.942;0.008;2023-11-22T09:38:12;99868.00;;;15.25;62.85
47280;BME280;34064;44.942;0.008;2023-11-22T09:40:43;99866.28;;;15.24;62.43
47280;BME280;34064;44.942;0.008;2023-11-22T09:43:12;99872.25;;;15.28;62.82
47280;BME280;34064;44.942;0.008;2023-11-22T09:45:41;99868.31;;;15.32;62.95
47280;BME280;34064;44.942;0.008;2023-11-22T09:48:25;99860.06;;;15.35;62.87
47280;BME280;34064;44.942;0.008;2023-11-22T09:53:55;99862.59;;;15.37;62.60
47280;BME280;34064;44.942;0.008;2023-11-22T09:56:20;99864.81;;;15.43;61.65
47280;BME280;34064;44.942;0.008;2023-11-22T09:58:47;99878.66;;;15.37;62.20
47280;BME280;34064;44.942;0.008;2023-11-22T10:01:17;99874.56;;;15.44;62.14
47280;BME280;34064;44.942;0.008;2023-11-22T10:03:44;99887.31;;;15.40;61.41
47280;BME280;34064;44.942;0.008;2023-11-22T10:06:11;99885.25;;;15.44;60.81
47280;BME280;34064;44.942;0.008;2023-11-22T10:08:37;99883.78;;;15.51;60.62
47280;BME280;34064;44.942;0.008;2023-11-22T10:11:04;99875.25;;;15.69;59.97
47280;BME280;34064;44.942;0.008;2023-11-22T10:13:30;99858.41;;;15.78;59.91
47280;BME280;34064;44.942;0.008;2023-11-22T10:16:09;99861.56;;;15.83;59.89
47280;BME280;34064;44.942;0.008;2023-11-22T10:18:43;99859.41;;;15.88;59.73
47280;BME280;34064;44.942;0.008;2023-11-22T10:21:30;99850.22;;;16.02;59.31
47280;BME280;34064;44.942;0.008;2023-11-22T10:23:57;99847.16;;;16.07;58.83
47280;BME280;34064;44.942;0.008;2023-11-22T10:26:26;99852.53;;;16.07;57.96
47280;BME280;34064;44.942;0.008;2023-11-22T10:28:55;99851.41;;;16.10;58.23
47280;BME280;34064;44.942;0.008;2023-11-22T10:31:23;99844.94;;;16.12;58.44
47280;BME280;34064;44.942;0.008;2023-11-22T10:33:50;99849.22;;;16.15;58.10
47280;BME280;34064;44.942;0.008;2023-11-22T10:36:19;99846.41;;;16.16;58.10
47280;BME280;34064;44.942;0.008;2023-11-22T10:38:47;99836.47;;;16.28;56.60
47280;BME280;34064;44.942;0.008;2023-11-22T10:41:14;99837.06;;;16.32;56.87
47280;BME280;34064;44.942;0.008;2023-11-22T10:43:40;99832.16;;;16.37;56.74
47280;BME280;34064;44.942;0.008;2023-11-22T10:46:13;99824.81;;;16.39;56.70
47280;BME280;34064;44.942;0.008;2023-11-22T10:48:39;99821.00;;;16.53;56.10
47280;BME280;34064;44.942;0.008;2023-11-22T10:51:06;99814.50;;;16.56;55.78
47280;BME280;34064;44.942;0.008;2023-11-22T10:53:36;99831.63;;;16.43;56.10
47280;BME280;34064;44.942;0.008;2023-11-22T10:56:15;99839.63;;;16.33;56.32
47280;BME280;34064;44.942;0.008;2023-11-22T10:58:56;99850.59;;;16.30;55.97
47280;BME280;34064;44.942;0.008;2023-11-22T11:01:26;99849.28;;;16.25;55.26
47280;BME280;34064;44.942;0.008;2023-11-22T11:04:10;99857.63;;;16.10;56.03
47280;BME280;34064;44.942;0.008;2023-11-22T11:06:42;99864.97;;;15.97;56.20
47280;BME280;34064;44.942;0.008;2023-11-22T11:09:10;99854.22;;;16.08;55.98
47280;BME280;34064;44.942;0.008;2023-11-22T11:11:38;99850.38;;;16.22;56.16
47280;BME280;34064;44.942;0.008;2023-11-22T11:14:08;99840.41;;;16.45;54.97
47280;BME280;34064;44.942;0.008;2023-11-22T11:16:38;99828.31;;;16.51;54.50
47280;BME280;34064;44.942;0.008;2023-11-22T11:19:09;99831.84;;;16.51;54.28
47280;BME280;34064;44.942;0.008;2023-11-22T11:21:36;99835.19;;;16.65;53.80
47280;BME280;34064;44.942;0.008;2023-11-22T11:24:03;99837.38;;;16.60;53.09
47280;BME280;34064;44.942;0.008;2023-11-22T11:26:31;99831.78;;;16.63;52.56
47280;BME280;34064;44.942;0.008;2023-11-22T11:28:58;99843.53;;;16.50;53.13
47280;BME280;34064;44.942;0.008;2023-11-22T11:31:24;99856.50;;;16.45;53.22
47280;BME280;34064;44.942;0.008;2023-11-22T11:33:57;99852.63;;;16.38;53.52
47280;BME280;34064;44.942;0.008;2023-11-22T11:36:30;99858.88;;;16.27;53.72
47280;BME280;34064;44.942;0.008;2023-11-22T11:39:01;99846.56;;;16.36;54.00
47280;BME280;34064;44.942;0.008;2023-11-22T11:41:33;99847.19;;;16.49;54.02
47280;BME280;34064;44.942;0.008;2023-11-22T11:44:02;99841.31;;;16.56;53.48
47280;BME280;34064;44.942;0.008;2023-11-22T11:46:29;99840.78;;;16.62;53.36
47280;BME280;34064;44.942;0.008;2023-11-22T11:48:57;99847.31;;;16.69;53.34
47280;BME280;34064;44.942;0.008;2023-11-22T11:51:25;99844.13;;;16.75;53.74
47280;BME280;34064;44.942;0.008;2023-11-22T11:53:52;99845.94;;;16.75;53.80
47280;BME280;34064;44.942;0.008;2023-11-22T11:56:18;99857.38;;;16.67;53.90
47280;BME280;34064;44.942;0.008;2023-11-22T11:58:46;99868.59;;;16.61;54.12
47280;BME280;34064;44.942;0.008;2023-11-22T12:01:13;99866.44;;;16.55;54.41
47280;BME280;34064;44.942;0.008;2023-11-22T12:03:39;99874.16;;;16.48;54.08
47280;BME280;34064;44.942;0.008;2023-11-22T12:06:07;99875.75;;;16.39;53.27
47280;BME280;34064;44.942;0.008;2023-11-22T12:08:34;99877.25;;;16.32;53.49
47280;BME280;34064;44.942;0.008;2023-11-22T12:11:03;99861.91;;;16.34;53.79
47280;BME280;34064;44.942;0.008;2023-11-22T12:13:31;99863.88;;;16.32;52.95
47280;BME280;34064;44.942;0.008;2023-11-22T12:15:58;99854.84;;;16.33;53.70
47280;BME280;34064;44.942;0.008;2023-11-22T12:18:24;99831.09;;;16.49;53.07
47280;BME280;34064;44.942;0.008;2023-11-22T12:20:58;99820.00;;;16.75;52.99
47280;BME280;34064;44.942;0.008;2023-11-22T12:23:28;99809.63;;;16.92;52.53
47280;BME280;34064;44.942;0.008;2023-11-22T12:25:58;99807.47;;;17.17;51.72
47280;BME280;34064;44.942;0.008;2023-11-22T12:28:27;99803.56;;;17.21;50.82
47280;BME280;34064;44.942;0.008;2023-11-22T12:30:54;99808.28;;;17.07;50.87
47280;BME280;34064;44.942;0.008;2023-11-22T12:33:20;99811.06;;;16.96;51.84
47280;BME280;34064;44.942;0.008;2023-11-22T12:35:47;99827.31;;;16.73;51.72
47280;BME280;34064;44.942;0.008;2023-11-22T12:38:15;99828.16;;;16.74;51.53
47280;BME280;34064;44.942;0.008;2023-11-22T12:40:46;99828.16;;;16.74;51.64
47280;BME280;34064;44.942;0.008;2023-11-22T12:43:15;99815.78;;;16.82;51.39
47280;BME280;34064;44.942;0.008;2023-11-22T12:45:41;99811.94;;;16.96;51.32
47280;BME280;34064;44.942;0.008;2023-11-22T12:48:23;99815.41;;;17.18;51.44
47280;BME280;34064;44.942;0.008;2023-11-22T12:50:51;99806.41;;;17.29;51.08
47280;BME280;34064;44.942;0.008;2023-11-22T12:53:19;99807.28;;;17.39;50.72
47280;BME280;34064;44.942;0.008;2023-11-22T12:55:48;99816.31;;;17.38;51.14
47280;BME280;34064;44.942;0.008;2023-11-22T12:58:21;99834.50;;;17.25;50.55
47280;BME280;34064;44.942;0.008;2023-11-22T13:00:50;99851.53;;;17.04;50.82
47280;BME280;34064;44.942;0.008;2023-11-22T13:03:17;99864.22;;;16.81;50.53
47280;BME280;34064;44.942;0.008;2023-11-22T13:05:44;99872.00;;;16.63;51.03